Donna, Texas
Current Conditions -  °F | °C
As of 11:15 AM on Friday 24 Oct 2014 (Local Time) from KT65 Reporting Station
Clear Clear  
Wind Chill: 80°   Ceiling: Unl
Heat Index: 82°   Visibility: 10mi
Dew Point: 63°   Wind: 6mph
Humidity: 55%   Direction: 10°N
Pressure: 30.16"   Gusts: NA
Location:  26.17°N, 98.04°W
Report Text: KT65 241615Z AUTO 01005KT 10SM CLR 27/17 A3016 RMK AO2 T02680170
Loading
Personal Weather Stations






























Interactive Weather Map
Tropical Storm Tracking
New forecast layout! Learn more

10-Day Weather Forecast

Advertisements
Track Severe Weather on mobile